createdAt,value
2018-12-23T00:00:25.219Z,98423.13
2018-12-23T00:05:30.468Z,98446.81
2018-12-23T00:10:34.261Z,98441.57
2018-12-23T00:15:38.483Z,98435.04
2018-12-23T00:20:42.481Z,98459.36
2018-12-23T00:25:46.275Z,98451.36
2018-12-23T00:30:50.200Z,98455.99
2018-12-23T00:35:54.118Z,98457.36
2018-12-23T00:40:58.057Z,98450.08
2018-12-23T00:46:01.975Z,98466.12
2018-12-23T00:51:06.515Z,98463.02
2018-12-23T00:56:12.523Z,98446.61
2018-12-23T01:01:16.407Z,98440.94
2018-12-23T01:06:20.313Z,98442.25
2018-12-23T01:11:24.354Z,98428.83
2018-12-23T01:16:28.167Z,98430.09
2018-12-23T01:21:32.105Z,98430.89
2018-12-23T01:26:36.080Z,98421.17
2018-12-23T01:31:40.073Z,98422.55
2018-12-23T01:36:43.965Z,98423.66
2018-12-23T01:41:47.861Z,98412.81
2018-12-23T01:46:51.885Z,98414.19
2018-12-23T01:51:55.748Z,98414.73
2018-12-23T01:56:59.746Z,98396.27
2018-12-23T02:02:03.853Z,98385.99
2018-12-23T02:07:08.007Z,98396.84
2018-12-23T02:12:12.104Z,98398.79
2018-12-23T02:17:16.026Z,98411.78
2018-12-23T02:22:19.777Z,98409.09
2018-12-23T02:27:23.773Z,98403.33
2018-12-23T02:32:27.698Z,98392.80
2018-12-23T02:37:32.327Z,98398.64
2018-12-23T02:42:36.152Z,98394.05
2018-12-23T02:47:40.190Z,98384.81
2018-12-23T02:52:44.092Z,98387.38
2018-12-23T02:57:48.002Z,98386.55
2018-12-23T03:02:51.755Z,98379.31
2018-12-23T03:07:55.920Z,98383.19
2018-12-23T03:12:59.716Z,98375.01
2018-12-23T03:18:03.813Z,98366.81
2018-12-23T03:23:08.652Z,98363.11
2018-12-23T03:28:12.693Z,98361.33
2018-12-23T03:33:16.719Z,98353.23
2018-12-23T03:38:20.550Z,98357.81
2018-12-23T03:43:24.465Z,98353.55
2018-12-23T03:48:28.619Z,98350.73
2018-12-23T03:53:32.520Z,98328.84
2018-12-23T03:58:36.490Z,98319.48
2018-12-23T04:03:40.418Z,98328.77
2018-12-23T04:08:44.082Z,98325.54
2018-12-23T04:13:47.943Z,98310.00
2018-12-23T04:18:52.050Z,98320.88
2018-12-23T04:23:56.025Z,98329.42
2018-12-23T04:28:59.709Z,98337.89
2018-12-23T04:34:03.543Z,98326.73
2018-12-23T04:39:07.366Z,98325.34
2018-12-23T04:44:11.160Z,98322.48
2018-12-23T04:49:15.432Z,98333.05
2018-12-23T04:54:19.303Z,98314.06
2018-12-23T04:59:23.076Z,98304.88
2018-12-23T05:04:26.931Z,98313.27
2018-12-23T05:09:31.189Z,98309.06
2018-12-23T05:14:34.911Z,98340.64
2018-12-23T05:19:39.054Z,98348.88
2018-12-23T05:24:44.515Z,98336.95
2018-12-23T05:29:48.314Z,98358.24
2018-12-23T05:34:52.201Z,98348.88
2018-12-23T05:39:55.983Z,98319.36
2018-12-23T05:44:59.862Z,98340.69
2018-12-23T05:50:03.778Z,98335.84
2018-12-23T05:55:07.591Z,98345.05
2018-12-23T06:00:11.240Z,98315.56
2018-12-23T06:05:14.941Z,98314.53
2018-12-23T06:10:21.067Z,98353.64
2018-12-23T06:15:24.746Z,98366.70
2018-12-23T06:20:28.755Z,98340.12
2018-12-23T06:25:32.490Z,98346.55
2018-12-23T06:30:36.263Z,98352.38
2018-12-23T06:35:40.063Z,98396.65
2018-12-23T06:40:44.007Z,98387.48
2018-12-23T06:45:47.776Z,98385.15
2018-12-23T06:50:51.647Z,98376.36
2018-12-23T06:55:55.459Z,98375.27
2018-12-23T07:00:59.242Z,98387.20
2018-12-23T07:06:04.811Z,98377.28
2018-12-23T07:11:08.544Z,98379.45
2018-12-23T07:16:12.462Z,98385.73
2018-12-23T07:21:16.809Z,98373.65
2018-12-23T07:26:20.563Z,98385.17
2018-12-23T07:31:24.365Z,98408.25
2018-12-23T07:36:28.239Z,98389.15
2018-12-23T07:41:31.934Z,98372.69
2018-12-23T07:46:35.969Z,98373.21
2018-12-23T07:51:39.917Z,98401.28
2018-12-23T07:56:43.643Z,98426.56
2018-12-23T08:01:47.342Z,98416.08
2018-12-23T08:06:51.663Z,98417.03
2018-12-23T08:11:56.867Z,98410.70
2018-12-23T08:17:00.764Z,98420.33
2018-12-23T08:22:04.701Z,98398.98
2018-12-23T08:27:12.055Z,98410.69
2018-12-23T08:32:17.325Z,98449.75
2018-12-23T08:37:23.253Z,98413.06
2018-12-23T08:42:27.127Z,98422.46
2018-12-23T08:47:30.961Z,98430.39
2018-12-23T08:52:34.922Z,98438.97
2018-12-23T08:57:38.897Z,98421.57
2018-12-23T09:02:42.660Z,98432.08
2018-12-23T09:07:53.042Z,98448.55
2018-12-23T09:12:55.001Z,98431.35
2018-12-23T09:18:02.219Z,98422.73
2018-12-23T09:23:07.001Z,98427.38
2018-12-23T09:28:10.946Z,98456.95
2018-12-23T09:33:14.716Z,98408.25
2018-12-23T09:38:18.397Z,98442.48
2018-12-23T09:43:22.023Z,98448.03
2018-12-23T09:48:25.732Z,98481.20
2018-12-23T09:53:29.569Z,98401.13
2018-12-23T09:58:33.360Z,98378.95
2018-12-23T10:03:37.094Z,98429.25
2018-12-23T10:08:43.571Z,98399.88
2018-12-23T10:13:48.354Z,98387.27
2018-12-23T10:18:52.237Z,98397.31
2018-12-23T10:23:58.441Z,98399.90
2018-12-23T10:29:02.226Z,98406.13
2018-12-23T10:34:05.973Z,98412.48
2018-12-23T10:39:10.610Z,98401.42
2018-12-23T10:44:14.403Z,98448.65
2018-12-23T10:49:18.245Z,98421.75
2018-12-23T10:54:22.269Z,98444.05
2018-12-23T10:59:26.597Z,98459.00
2018-12-23T11:04:30.570Z,98460.47
2018-12-23T11:09:34.419Z,98434.77
2018-12-23T11:14:38.587Z,98425.88
2018-12-23T11:19:42.895Z,98467.54
2018-12-23T11:24:47.114Z,98444.66
2018-12-23T11:29:51.842Z,98446.22
2018-12-23T11:34:56.877Z,98458.56
2018-12-23T11:40:01.148Z,98507.39
2018-12-23T11:45:06.353Z,98479.77
2018-12-23T11:50:23.102Z,98452.25
2018-12-23T11:55:27.533Z,98534.87
2018-12-23T12:00:32.858Z,98492.92
2018-12-23T12:05:37.483Z,98508.73
2018-12-23T12:10:41.903Z,98494.80
2018-12-23T12:15:46.239Z,98483.12
2018-12-23T12:20:50.431Z,98498.91
2018-12-23T12:25:55.362Z,98518.60
2018-12-23T12:30:59.772Z,98466.73
2018-12-23T12:36:04.419Z,98491.17
2018-12-23T12:41:09.260Z,98535.55
2018-12-23T12:46:13.230Z,98547.30
2018-12-23T12:51:18.491Z,98559.96
2018-12-23T12:56:22.979Z,98543.34
2018-12-23T13:01:28.266Z,98541.12
2018-12-23T13:06:33.017Z,98532.87
2018-12-23T13:11:38.197Z,98539.33
2018-12-23T13:16:42.207Z,98518.47
2018-12-23T13:21:46.412Z,98539.95
2018-12-23T13:26:50.580Z,98540.03
2018-12-23T13:31:54.335Z,98583.80
2018-12-23T13:36:58.009Z,98574.56
2018-12-23T13:43:19.726Z,98572.97
2018-12-23T13:48:51.059Z,98570.16
2018-12-23T13:54:06.252Z,98545.98
2018-12-23T13:59:21.922Z,98572.50
2018-12-23T14:04:40.161Z,98578.98
2018-12-23T14:10:36.533Z,98608.03
2018-12-23T14:15:40.380Z,98633.98
2018-12-23T14:20:44.406Z,98615.50
2018-12-23T14:25:48.971Z,98592.63
2018-12-23T14:30:52.870Z,98576.70
2018-12-23T14:35:56.653Z,98598.48
2018-12-23T14:41:00.341Z,98577.88
2018-12-23T14:46:04.040Z,98584.28
2018-12-23T14:51:07.826Z,98637.64
2018-12-23T14:56:11.659Z,98601.69
2018-12-23T15:01:15.571Z,98604.29
2018-12-23T15:06:19.404Z,98614.79
2018-12-23T15:11:24.762Z,98614.11
2018-12-23T15:16:28.837Z,98656.12
2018-12-23T15:21:32.658Z,98631.88
2018-12-23T15:26:36.538Z,98646.52
2018-12-23T15:31:40.391Z,98637.45
2018-12-23T15:36:44.176Z,98615.66
2018-12-23T15:41:48.258Z,98616.98
2018-12-23T15:46:52.082Z,98658.55
2018-12-23T15:51:55.931Z,98656.45
2018-12-23T15:56:59.687Z,98658.44
2018-12-23T16:02:04.153Z,98695.16
2018-12-23T16:07:08.116Z,98654.83
2018-12-23T16:12:11.836Z,98676.53
2018-12-23T16:17:16.223Z,98667.51
2018-12-23T16:22:20.010Z,98670.75
2018-12-23T16:27:24.005Z,98678.80
2018-12-23T16:32:27.844Z,98702.97
2018-12-23T16:37:32.656Z,98664.19
2018-12-23T16:42:36.350Z,98662.34
2018-12-23T16:47:40.623Z,98664.26
2018-12-23T16:52:45.509Z,98667.48
2018-12-23T16:57:49.256Z,98666.37
2018-12-23T17:02:53.285Z,98687.19
2018-12-23T17:07:57.042Z,98662.23
2018-12-23T17:13:01.004Z,98669.64
2018-12-23T17:18:05.038Z,98696.20
2018-12-23T17:23:08.952Z,98688.10
2018-12-23T17:28:12.779Z,98675.97
2018-12-23T17:33:16.759Z,98703.69
2018-12-23T17:38:20.576Z,98697.53
2018-12-23T17:43:24.803Z,98707.83
2018-12-23T17:48:28.677Z,98698.27
2018-12-23T17:53:32.647Z,98701.57
2018-12-23T17:58:36.404Z,98692.25
2018-12-23T18:03:40.255Z,98696.22
2018-12-23T18:08:43.974Z,98694.70
2018-12-23T18:13:47.814Z,98708.24
2018-12-23T18:18:51.792Z,98710.80
2018-12-23T18:23:55.602Z,98712.98
2018-12-23T18:28:59.422Z,98703.77
2018-12-23T18:34:03.336Z,98714.94
2018-12-23T18:39:07.457Z,98712.42
2018-12-23T18:44:12.073Z,98714.25
2018-12-23T18:49:15.935Z,98714.94
2018-12-23T18:54:20.053Z,98726.84
2018-12-23T18:59:24.273Z,98720.00
2018-12-23T19:04:28.277Z,98710.08
2018-12-23T19:10:42.269Z,98713.86
2018-12-23T19:16:31.890Z,98719.11
2018-12-23T19:22:18.664Z,98728.29
2018-12-23T19:27:59.669Z,98735.52
2018-12-23T19:33:21.127Z,98732.61
2018-12-23T19:38:51.474Z,98728.46
2018-12-23T19:44:22.108Z,98727.22
2018-12-23T19:49:51.234Z,98738.25
2018-12-23T19:55:26.474Z,98745.63
2018-12-23T20:01:03.099Z,98753.05
2018-12-23T20:06:44.066Z,98744.36
2018-12-23T20:12:20.129Z,98749.42
2018-12-23T20:18:08.893Z,98760.25
2018-12-23T20:23:48.666Z,98743.30
2018-12-23T20:29:18.184Z,98760.08
2018-12-23T20:34:52.302Z,98744.00
2018-12-23T20:41:07.970Z,98739.33
2018-12-23T20:46:36.343Z,98736.63
2018-12-23T20:52:23.233Z,98754.84
2018-12-23T20:57:51.838Z,98765.87
2018-12-23T21:03:45.942Z,98764.41
2018-12-23T21:09:28.209Z,98765.50
2018-12-23T21:15:15.234Z,98764.77
2018-12-23T21:21:09.778Z,98751.59
2018-12-23T21:26:53.583Z,98767.49
2018-12-23T21:32:17.767Z,98766.40
2018-12-23T21:37:36.824Z,98771.26
2018-12-23T21:43:34.072Z,98766.40
2018-12-23T21:49:28.170Z,98777.94
2018-12-23T21:55:13.762Z,98763.55
2018-12-23T22:00:40.533Z,98766.06
2018-12-23T22:06:32.760Z,98759.22
2018-12-23T22:12:20.875Z,98756.56
2018-12-23T22:17:24.449Z,98743.22
2018-12-23T22:22:27.994Z,98722.80
2018-12-23T22:27:38.029Z,98721.22
2018-12-23T22:32:42.646Z,98720.22
2018-12-23T22:37:46.327Z,98724.58
2018-12-23T22:42:49.882Z,98724.52
2018-12-23T22:47:53.688Z,98735.67
2018-12-23T22:52:57.452Z,98755.35
2018-12-23T22:58:00.866Z,98757.30
2018-12-23T23:03:09.285Z,98738.13
2018-12-23T23:08:12.780Z,98723.44
2018-12-23T23:13:18.672Z,98719.36
2018-12-23T23:18:21.811Z,98711.41
2018-12-23T23:23:25.234Z,98703.32
2018-12-23T23:28:28.918Z,98698.77
2018-12-23T23:33:33.150Z,98712.25
2018-12-23T23:38:38.166Z,98701.66
2018-12-23T23:43:41.630Z,98717.45
2018-12-23T23:48:45.179Z,98724.72
2018-12-23T23:53:48.716Z,98729.92
2018-12-23T23:58:52.248Z,98738.70
